Terminal Aerodrome Forecast
Issued by NWS

Home | Current Version | Previous Version | Text Only | Print | Product List | Glossary On
Versions: 1 2 3 4 5 6 7 8 9 10 11 12 13 14 15 16 17 18 19
000
FTAK31 PAJN 240500
TAFAGY
TAF
PAGY 240522Z 2406/2506 20015G25KT P6SM VCSH OVC060
     FM241200 04010KT P6SM SCT040 BKN060 OVC080
     FM242100 04015KT P6SM VCSH SCT050 BKN070
     FM250000 03009KT P6SM -SHRA BKN050
      AMD LTD TO CLD VIS AND WIND=

USA.gov is the U.S. government's official web portal to all federal, state and local government web resources and services.